Time;durP1;ratioP1;P1;durP2;ratioP2;P2;SDS_P1;SDS_P2;PMS_P1;PMS_P2;Temp;Humidity;BMP_temperature;BMP_pressure;BME280_temperature;BME280_humidity;BME280_pressure;Samples;Min_cycle;Max_cycle;Signal;HPM_P1;HPM_P2
2022/03/20 00:01:02;;;;;;;19.70;14.30;;;5.80;1.00;;;;;;5072297;28;20251;-58
2022/03/20 00:03:30;;;;;;;21.73;14.27;;;5.70;1.00;;;;;;5072688;28;20198;-58
2022/03/20 00:05:57;;;;;;;19.97;14.60;;;5.70;1.00;;;;;;5035136;28;20494;-58
2022/03/20 00:08:23;;;;;;;18.50;13.83;;;5.70;1.00;;;;;;5033853;28;20451;-59
2022/03/20 00:10:51;;;;;;;22.10;14.97;;;5.70;1.00;;;;;;5029642;28;20461;-58
2022/03/20 00:13:21;;;;;;;21.90;14.70;;;5.60;1.00;;;;;;5028887;28;20458;-60
2022/03/20 00:15:50;;;;;;;17.60;14.03;;;5.50;1.00;;;;;;5033780;28;20463;-58
2022/03/20 00:18:17;;;;;;;17.70;13.30;;;5.40;1.00;;;;;;5044038;28;20574;-58
2022/03/20 00:20:54;;;;;;;20.00;13.97;;;5.30;1.00;;;;;;5031679;28;20451;-58
2022/03/20 00:23:22;;;;;;;18.80;13.53;;;5.30;1.00;;;;;;5032162;28;21081;-58
2022/03/20 00:25:47;;;;;;;19.80;14.20;;;5.30;1.00;;;;;;5030510;28;20572;-58
2022/03/20 00:28:18;;;;;;;20.33;13.93;;;5.30;1.00;;;;;;5028922;28;20478;-58
2022/03/20 00:30:44;;;;;;;20.53;13.77;;;5.20;1.00;;;;;;5036362;28;20187;-57
2022/03/20 00:33:10;;;;;;;17.53;13.43;;;5.10;1.00;;;;;;5035258;28;20446;-59
2022/03/20 00:35:36;;;;;;;21.73;14.13;;;5.10;1.00;;;;;;5034044;28;20576;-59
2022/03/20 00:38:02;;;;;;;16.20;13.23;;;5.00;1.00;;;;;;5033793;28;20266;-57
2022/03/20 00:40:28;;;;;;;19.60;14.70;;;5.00;1.00;;;;;;5031542;28;20455;-56
2022/03/20 00:42:54;;;;;;;19.40;13.40;;;5.00;1.00;;;;;;5030113;28;20455;-57
2022/03/20 00:45:24;;;;;;;18.03;13.27;;;5.00;1.00;;;;;;5031331;28;20188;-57
2022/03/20 00:47:50;;;;;;;15.30;12.23;;;5.00;1.00;;;;;;5030796;28;20185;-58
2022/03/20 00:50:16;;;;;;;19.90;12.97;;;5.00;1.00;;;;;;5038991;28;20767;-58
2022/03/20 00:52:42;;;;;;;20.67;14.13;;;4.90;1.00;;;;;;5032325;28;20236;-59
2022/03/20 00:55:08;;;;;;;19.33;14.80;;;4.90;1.00;;;;;;5041283;28;20453;-58
2022/03/20 00:57:34;;;;;;;18.10;13.43;;;4.80;1.00;;;;;;5029857;28;20459;-60
2022/03/20 01:00:00;;;;;;;20.30;13.83;;;;;;;;;;5049892;28;20184;-58
2022/03/20 01:02:25;;;;;;;24.07;13.40;;;4.70;1.00;;;;;;5035967;28;20212;-57
2022/03/20 01:04:51;;;;;;;21.60;13.57;;;;;;;;;;5047635;28;20569;-57
2022/03/20 01:07:17;;;;;;;22.00;13.50;;;4.60;1.00;;;;;;5070734;28;20211;-58
2022/03/20 01:09:43;;;;;;;22.43;13.77;;;4.60;1.00;;;;;;5071331;28;20445;-58
2022/03/20 01:12:09;;;;;;;19.17;13.60;;;5.60;1.00;;;;;;5070042;28;20486;-58
2022/03/20 01:14:35;;;;;;;18.93;13.53;;;4.60;1.00;;;;;;5063058;28;20453;-59
2022/03/20 01:17:01;;;;;;;18.27;14.27;;;4.70;1.00;;;;;;5052894;28;20492;-59
2022/03/20 01:19:28;;;;;;;19.37;14.10;;;4.50;1.00;;;;;;5054554;28;20569;-59
2022/03/20 01:21:55;;;;;;;18.43;14.30;;;4.60;1.00;;;;;;5065781;28;20446;-60
2022/03/20 01:24:22;;;;;;;21.33;13.30;;;4.60;1.00;;;;;;5069535;28;20458;-59
2022/03/20 01:26:48;;;;;;;20.83;13.67;;;4.60;1.00;;;;;;5071759;28;20448;-57
2022/03/20 01:29:13;;;;;;;21.50;13.47;;;4.70;1.00;;;;;;5071480;28;20446;-58
2022/03/20 01:31:39;;;;;;;20.93;14.60;;;4.70;1.00;;;;;;5072680;28;20264;-58
2022/03/20 01:34:06;;;;;;;20.83;13.97;;;4.70;1.00;;;;;;5070076;28;20580;-58
2022/03/20 01:36:31;;;;;;;19.47;13.13;;;4.70;1.00;;;;;;5069901;28;20454;-58
2022/03/20 01:38:57;;;;;;;16.97;13.00;;;4.70;1.00;;;;;;5070266;28;20476;-58
2022/03/20 01:41:24;;;;;;;17.83;13.07;;;4.70;1.00;;;;;;5069050;28;20205;-59
2022/03/20 01:43:50;;;;;;;18.43;13.60;;;4.80;1.00;;;;;;5070917;28;20176;-58
2022/03/20 01:46:16;;;;;;;18.00;14.03;;;4.70;1.00;;;;;;5067714;28;20445;-59
2022/03/20 01:48:42;;;;;;;23.70;14.47;;;4.50;1.00;;;;;;5052209;28;20449;-57
2022/03/20 01:51:10;;;;;;;20.30;15.07;;;4.50;1.00;;;;;;5069916;28;20453;-57
2022/03/20 01:53:36;;;;;;;22.37;14.60;;;4.50;1.00;;;;;;5070635;28;20637;-57
2022/03/20 01:56:04;;;;;;;22.23;13.10;;;;;;;;;;5070930;28;20455;-56
2022/03/20 01:58:32;;;;;;;15.80;13.03;;;4.50;1.00;;;;;;5069683;28;20492;-57
2022/03/20 02:00:58;;;;;;;19.77;13.97;;;4.60;1.00;;;;;;5066460;28;20783;-59
2022/03/20 02:03:24;;;;;;;20.73;14.67;;;4.60;1.00;;;;;;5070058;28;20442;-58
2022/03/20 02:05:51;;;;;;;17.90;13.50;;;4.60;1.00;;;;;;5068724;28;20476;-59
2022/03/20 02:08:25;;;;;;;18.23;12.73;;;;;;;;;;5071736;28;20183;-60
2022/03/20 02:10:54;;;;;;;21.93;13.53;;;4.60;1.00;;;;;;5065191;28;20961;-57
2022/03/20 02:13:24;;;;;;;22.43;14.93;;;4.50;1.00;;;;;;5063805;28;20464;-60
2022/03/20 02:15:51;;;;;;;18.93;13.83;;;4.60;1.00;;;;;;5071823;28;20445;-58
2022/03/20 02:18:18;;;;;;;20.40;13.53;;;4.60;1.00;;;;;;5068787;28;20549;-59
2022/03/20 02:20:46;;;;;;;21.63;13.20;;;4.60;1.00;;;;;;5069544;28;20551;-58
2022/03/20 02:23:12;;;;;;;23.37;15.20;;;4.60;1.00;;;;;;5070659;28;20495;-58
2022/03/20 02:25:50;;;;;;;20.17;14.10;;;4.60;1.00;;;;;;5072362;28;20437;-58
2022/03/20 02:28:16;;;;;;;19.63;13.50;;;4.50;1.00;;;;;;5067758;28;20186;-57
2022/03/20 02:30:42;;;;;;;23.27;14.00;;;4.50;1.00;;;;;;5067911;28;20851;-57
2022/03/20 02:33:09;;;;;;;19.30;12.80;;;4.50;1.00;;;;;;5071511;28;20487;-56
2022/03/20 02:35:35;;;;;;;23.83;13.93;;;4.50;1.00;;;;;;5069654;28;20544;-58
2022/03/20 02:38:02;;;;;;;17.10;12.63;;;4.50;1.00;;;;;;5066730;28;20504;-58
2022/03/20 02:40:27;;;;;;;20.80;12.70;;;4.50;1.00;;;;;;5069265;28;20187;-56
2022/03/20 02:42:54;;;;;;;20.00;12.63;;;4.40;1.00;;;;;;5067073;28;21730;-58
2022/03/20 02:45:23;;;;;;;23.17;14.27;;;4.40;1.00;;;;;;5069302;28;20649;-58
2022/03/20 02:47:51;;;;;;;22.50;13.43;;;4.40;1.00;;;;;;5069946;28;20444;-58
2022/03/20 02:50:36;;;;;;;17.70;13.20;;;4.40;1.00;;;;;;5071310;28;20448;-57
2022/03/20 02:53:13;;;;;;;20.13;13.10;;;4.40;1.00;;;;;;5068223;28;20538;-59
2022/03/20 02:55:40;;;;;;;16.33;11.97;;;4.50;1.00;;;;;;5069163;28;21515;-58
2022/03/20 02:58:10;;;;;;;19.47;12.57;;;4.50;1.00;;;;;;5069934;28;21042;-57
2022/03/20 03:00:37;;;;;;;19.63;13.30;;;4.40;1.00;;;;;;5068202;28;20453;-59
2022/03/20 03:03:04;;;;;;;17.33;12.83;;;5.40;1.00;;;;;;5070653;28;20524;-57
2022/03/20 03:05:31;;;;;;;21.77;13.27;;;4.40;1.00;;;;;;5070735;28;20505;-57
2022/03/20 03:10:57;;;;;;;17.40;12.10;;;4.40;1.00;;;;;;5071269;28;21089;-59
2022/03/20 03:13:25;;;;;;;19.83;12.27;;;4.30;1.00;;;;;;5063557;28;20446;-57
2022/03/20 03:15:53;;;;;;;19.93;13.90;;;4.30;1.00;;;;;;5074273;28;21421;-57
2022/03/20 03:18:20;;;;;;;18.90;13.83;;;4.40;1.00;;;;;;5073035;28;20556;-59
2022/03/20 03:20:47;;;;;;;20.30;13.77;;;4.40;1.00;;;;;;5071735;28;20445;-58
2022/03/20 03:23:13;;;;;;;16.03;12.13;;;4.40;1.00;;;;;;5072878;28;20446;-58
2022/03/20 03:25:40;;;;;;;17.50;11.50;;;4.30;1.00;;;;;;5072801;28;20446;-57
2022/03/20 03:28:06;;;;;;;21.50;13.67;;;4.30;1.00;;;;;;5068737;28;20792;-59
2022/03/20 03:30:32;;;;;;;20.43;14.10;;;4.30;1.00;;;;;;5066845;28;20482;-58
2022/03/20 03:32:57;;;;;;;23.67;13.83;;;4.30;1.00;;;;;;5067343;28;20445;-58
2022/03/20 03:35:41;;;;;;;17.37;13.10;;;4.30;1.00;;;;;;5070582;28;20799;-59
2022/03/20 03:38:11;;;;;;;16.97;12.97;;;4.30;1.00;;;;;;5067313;28;20231;-59
2022/03/20 03:40:38;;;;;;;18.50;12.60;;;4.20;1.00;;;;;;5072682;28;20532;-59
2022/03/20 03:43:04;;;;;;;17.67;12.37;;;4.30;1.00;;;;;;5071533;28;20438;-59
2022/03/20 03:45:29;;;;;;;20.60;13.07;;;4.20;1.00;;;;;;5070525;28;20444;-57
2022/03/20 03:47:56;;;;;;;17.57;12.93;;;4.30;1.00;;;;;;5070493;28;20446;-57
2022/03/20 03:50:22;;;;;;;17.00;12.17;;;4.30;1.00;;;;;;5070973;28;20691;-58
2022/03/20 03:52:48;;;;;;;21.43;13.87;;;4.40;1.00;;;;;;5067771;28;20453;-58
2022/03/20 03:55:14;;;;;;;21.23;14.43;;;4.20;1.00;;;;;;5069770;28;20607;-58
2022/03/20 03:57:48;;;;;;;18.50;12.63;;;4.20;1.00;;;;;;5070955;28;20445;-57
2022/03/20 04:00:15;;;;;;;16.10;10.77;;;4.20;1.00;;;;;;5071538;28;20456;-58
2022/03/20 04:02:41;;;;;;;21.07;13.97;;;4.10;1.00;;;;;;5070449;28;20775;-56
2022/03/20 04:05:06;;;;;;;20.27;12.80;;;4.00;1.00;;;;;;5071787;28;20507;-57
2022/03/20 04:07:33;;;;;;;16.60;11.60;;;4.00;1.00;;;;;;5065591;28;20244;-58
2022/03/20 04:10:01;;;;;;;19.07;13.43;;;4.00;1.00;;;;;;5070815;28;20430;-59
2022/03/20 04:12:28;;;;;;;15.67;11.50;;;4.00;1.00;;;;;;5053837;28;20456;-58
2022/03/20 04:14:54;;;;;;;17.80;12.60;;;4.00;1.00;;;;;;5070729;28;20890;-56
2022/03/20 04:17:19;;;;;;;18.23;11.87;;;3.90;1.00;;;;;;5070683;28;20572;-57
2022/03/20 04:19:45;;;;;;;18.27;11.53;;;3.90;1.00;;;;;;5071597;28;20252;-58
2022/03/20 04:22:10;;;;;;;18.53;12.70;;;3.90;1.00;;;;;;5071189;28;20297;-58
2022/03/20 04:24:36;;;;;;;15.43;13.00;;;3.90;1.00;;;;;;5072902;28;20195;-59
2022/03/20 04:27:03;;;;;;;18.27;12.30;;;3.90;1.00;;;;;;5070193;28;20687;-60
2022/03/20 04:29:28;;;;;;;17.23;11.67;;;4.00;1.00;;;;;;5071987;28;20191;-58
2022/03/20 04:31:55;;;;;;;20.43;12.53;;;3.90;1.00;;;;;;5069298;28;20957;-60
2022/03/20 04:34:27;;;;;;;19.50;11.90;;;4.00;1.00;;;;;;5072186;28;20183;-60
2022/03/20 04:36:56;;;;;;;19.73;12.63;;;4.00;1.00;;;;;;5068031;28;20503;-58
2022/03/20 04:39:22;;;;;;;18.63;11.80;;;4.00;1.00;;;;;;5068781;28;20522;-57
2022/03/20 04:41:48;;;;;;;16.93;13.03;;;4.10;1.00;;;;;;5071449;28;20449;-58
2022/03/20 04:44:13;;;;;;;26.47;13.73;;;4.00;1.00;;;;;;5068600;28;20445;-58
2022/03/20 04:46:40;;;;;;;19.90;11.73;;;3.90;1.00;;;;;;5069529;28;20180;-58
2022/03/20 05:00:03;;;;;;;16.33;12.17;;;3.90;1.00;;;;;;5072231;28;20463;-58
2022/03/20 05:02:29;;;;;;;16.37;11.30;;;;;;;;;;5065512;28;20453;-57
2022/03/20 05:04:55;;;;;;;15.17;10.87;;;4.00;1.00;;;;;;5070188;28;20466;-57
2022/03/20 05:07:20;;;;;;;18.23;11.90;;;4.10;1.00;;;;;;5070243;28;20441;-57
2022/03/20 05:15:16;;;;;;;15.30;11.87;;;4.10;1.00;;;;;;5069537;28;20490;-59
2022/03/20 05:17:41;;;;;;;15.67;11.40;;;4.10;1.00;;;;;;5066198;28;20784;-57
2022/03/20 05:20:07;;;;;;;15.43;11.03;;;4.10;1.00;;;;;;5053389;28;20444;-58
2022/03/20 05:22:37;;;;;;;17.07;11.50;;;4.10;1.00;;;;;;5069137;28;20193;-58
2022/03/20 05:25:07;;;;;;;14.40;10.43;;;4.20;1.00;;;;;;5071278;28;20488;-59
2022/03/20 05:27:33;;;;;;;18.03;13.03;;;4.20;1.00;;;;;;5075292;28;20867;-58
2022/03/20 05:29:58;;;;;;;19.47;12.57;;;;;;;;;;5071308;28;20476;-57
2022/03/20 05:32:26;;;;;;;19.17;12.60;;;4.30;1.00;;;;;;5067660;28;20551;-57
2022/03/20 05:34:52;;;;;;;16.47;12.27;;;4.30;1.00;;;;;;5070250;28;20495;-56
2022/03/20 05:37:17;;;;;;;16.03;11.37;;;4.30;1.00;;;;;;5069141;28;20445;-58
2022/03/20 05:39:45;;;;;;;12.60;11.10;;;4.30;1.00;;;;;;5070905;28;20472;-57
2022/03/20 05:42:10;;;;;;;19.47;11.27;;;4.40;1.00;;;;;;5071337;28;20186;-58
2022/03/20 05:44:36;;;;;;;15.53;11.30;;;4.40;1.00;;;;;;5068947;28;20507;-57
2022/03/20 05:47:02;;;;;;;14.90;11.40;;;4.60;1.00;;;;;;5067472;28;20480;-58
2022/03/20 05:49:28;;;;;;;17.30;12.00;;;;;;;;;;5070751;28;20195;-59
2022/03/20 05:51:54;;;;;;;17.33;11.33;;;4.60;1.00;;;;;;5069803;28;20437;-58
2022/03/20 05:54:21;;;;;;;15.50;10.90;;;4.60;1.00;;;;;;5070868;28;20438;-58
2022/03/20 05:59:33;;;;;;;16.33;11.10;;;4.80;1.00;;;;;;5069040;28;20811;-58
2022/03/20 06:02:00;;;;;;;15.27;10.03;;;5.00;1.00;;;;;;5066843;28;20511;-57
2022/03/20 06:04:26;;;;;;;14.77;10.73;;;5.00;1.00;;;;;;5068095;28;20516;-57
2022/03/20 06:06:51;;;;;;;18.20;10.57;;;5.10;1.00;;;;;;5068819;28;20473;-58
2022/03/20 06:09:17;;;;;;;14.53;10.63;;;5.20;1.00;;;;;;5062748;28;20206;-58
2022/03/20 06:11:43;;;;;;;13.10;10.37;;;5.30;1.00;;;;;;5046441;28;20241;-58
2022/03/20 06:14:09;;;;;;;11.87;10.33;;;5.30;1.00;;;;;;5069699;28;20244;-57
2022/03/20 06:16:36;;;;;;;15.73;10.97;;;5.50;1.00;;;;;;5067341;28;20471;-60
2022/03/20 06:19:02;;;;;;;13.17;10.60;;;5.50;1.00;;;;;;5071895;28;20469;-58
2022/03/20 06:21:28;;;;;;;15.20;11.17;;;5.70;1.00;;;;;;5068592;28;20463;-57
2022/03/20 06:23:55;;;;;;;13.47;11.03;;;5.80;1.00;;;;;;5071567;28;20934;-59
2022/03/20 06:26:23;;;;;;;16.10;10.60;;;5.90;1.00;;;;;;5069051;28;20211;-60
2022/03/20 06:28:48;;;;;;;14.97;10.63;;;5.90;1.00;;;;;;5070229;28;20465;-57
2022/03/20 06:31:15;;;;;;;16.90;10.97;;;6.30;1.00;;;;;;5068035;28;20449;-58
2022/03/20 06:33:41;;;;;;;13.93;10.80;;;6.40;1.00;;;;;;5082540;28;20503;-57
2022/03/20 06:36:08;;;;;;;16.40;10.93;;;6.40;1.00;;;;;;5069594;28;20457;-57
2022/03/20 06:38:35;;;;;;;14.27;10.90;;;6.60;1.00;;;;;;5069918;28;20524;-58
2022/03/20 06:41:02;;;;;;;14.13;10.20;;;6.60;1.00;;;;;;5073735;28;20440;-58
2022/03/20 06:43:30;;;;;;;17.97;10.30;;;6.70;1.00;;;;;;5073172;28;20958;-57
2022/03/20 06:45:56;;;;;;;17.13;11.10;;;6.80;1.00;;;;;;5055380;28;20460;-59
2022/03/20 06:48:22;;;;;;;12.33;10.13;;;7.00;1.00;;;;;;5072576;28;20893;-58
2022/03/20 06:50:47;;;;;;;12.00;10.50;;;7.20;1.00;;;;;;5072907;28;20441;-58
2022/03/20 06:53:13;;;;;;;17.33;11.50;;;7.30;1.00;;;;;;5073354;28;20444;-58
2022/03/20 06:55:39;;;;;;;13.37;9.87;;;7.30;1.00;;;;;;5071709;28;20818;-58
2022/03/20 06:58:05;;;;;;;13.63;10.80;;;7.40;1.00;;;;;;5072291;28;20472;-58
2022/03/20 07:00:31;;;;;;;15.20;10.20;;;7.60;1.00;;;;;;5071869;28;20919;-57
2022/03/20 07:03:00;;;;;;;12.27;9.47;;;7.70;1.00;;;;;;5054497;28;20437;-58
2022/03/20 07:05:26;;;;;;;15.40;11.60;;;7.80;1.00;;;;;;5071902;28;20564;-57
2022/03/20 07:07:53;;;;;;;15.47;10.73;;;7.80;1.00;;;;;;5072505;28;20854;-58
2022/03/20 07:10:23;;;;;;;17.97;9.30;;;7.80;1.00;;;;;;5073073;28;20499;-59
2022/03/20 07:12:50;;;;;;;14.47;10.20;;;7.80;1.00;;;;;;5073758;28;20950;-59
2022/03/20 07:15:19;;;;;;;14.13;10.20;;;8.00;1.00;;;;;;5072612;28;20433;-58
2022/03/20 07:17:48;;;;;;;14.27;9.90;;;8.10;1.00;;;;;;5070868;28;20441;-58
2022/03/20 07:20:18;;;;;;;13.40;9.90;;;8.10;1.00;;;;;;5072633;28;20438;-58
2022/03/20 07:22:44;;;;;;;17.97;10.30;;;8.20;1.00;;;;;;5072469;28;20590;-58
2022/03/20 07:30:38;;;;;;;14.03;10.43;;;8.40;1.00;;;;;;5071446;28;20495;-57
2022/03/20 07:33:03;;;;;;;12.40;9.63;;;8.50;1.00;;;;;;5071992;28;20442;-60
2022/03/20 07:35:30;;;;;;;15.23;10.73;;;8.40;1.00;;;;;;5071905;28;20210;-58
2022/03/20 07:37:56;;;;;;;12.37;9.27;;;8.40;1.00;;;;;;5073102;28;20296;-59
2022/03/20 07:40:22;;;;;;;13.60;10.30;;;8.70;1.00;;;;;;5074367;28;20437;-60
2022/03/20 07:42:47;;;;;;;14.90;10.73;;;8.80;1.00;;;;;;5072960;28;20503;-60
2022/03/20 07:45:13;;;;;;;12.83;9.30;;;8.90;1.00;;;;;;5072960;28;20211;-60
2022/03/20 07:47:39;;;;;;;12.00;9.20;;;8.90;1.00;;;;;;5073970;28;20172;-63
2022/03/20 07:50:07;;;;;;;14.00;9.60;;;9.20;1.00;;;;;;5073981;28;20210;-61
2022/03/20 07:52:35;;;;;;;12.73;8.53;;;9.30;1.00;;;;;;5074451;28;20526;-61
2022/03/20 07:55:01;;;;;;;12.40;10.47;;;9.40;1.00;;;;;;5075494;28;20490;-62
2022/03/20 07:57:27;;;;;;;12.50;8.80;;;9.50;1.00;;;;;;5075337;28;20437;-61
2022/03/20 07:59:52;;;;;;;15.37;9.83;;;9.60;1.00;;;;;;5056241;28;20529;-61
2022/03/20 08:02:18;;;;;;;9.93;8.90;;;9.60;1.00;;;;;;5076466;28;20172;-61
2022/03/20 08:04:43;;;;;;;13.53;9.17;;;9.70;1.00;;;;;;5073863;28;20219;-61
2022/03/20 08:07:09;;;;;;;11.00;9.30;;;9.80;1.00;;;;;;5074086;28;20175;-60
2022/03/20 08:09:36;;;;;;;13.10;8.77;;;10.00;1.00;;;;;;5074259;28;20276;-61
2022/03/20 08:12:01;;;;;;;10.07;8.90;;;10.10;1.00;;;;;;5074455;28;20514;-62
2022/03/20 08:14:27;;;;;;;12.63;9.13;;;10.30;1.00;;;;;;5073427;28;20437;-61
2022/03/20 08:16:53;;;;;;;12.37;9.03;;;10.30;1.00;;;;;;5073820;28;20510;-61
2022/03/20 08:19:22;;;;;;;12.73;9.30;;;;;;;;;;5071761;28;20480;-60
2022/03/20 08:21:49;;;;;;;10.70;9.10;;;10.20;1.00;;;;;;5072747;28;20649;-61
2022/03/20 08:24:15;;;;;;;13.07;9.57;;;10.10;1.00;;;;;;5072521;28;20437;-60
2022/03/20 08:26:42;;;;;;;10.80;8.70;;;10.10;1.00;;;;;;5071821;28;20442;-60
2022/03/20 08:29:12;;;;;;;12.80;9.20;;;10.20;1.00;;;;;;5054874;28;20539;-61
2022/03/20 08:31:43;;;;;;;11.50;8.57;;;10.30;1.00;;;;;;5056321;28;20452;-61
2022/03/20 08:34:09;;;;;;;11.47;8.47;;;10.30;1.00;;;;;;5072407;28;20546;-60
2022/03/20 08:36:35;;;;;;;10.60;8.60;;;10.50;1.00;;;;;;5071701;28;21111;-60
2022/03/20 08:39:02;;;;;;;11.90;8.87;;;10.50;1.00;;;;;;5071757;28;21025;-59
2022/03/20 08:41:28;;;;;;;10.53;8.47;;;10.70;1.00;;;;;;5072879;28;20560;-61
2022/03/20 08:43:53;;;;;;;9.77;8.53;;;11.00;1.00;;;;;;5071622;28;20446;-61
2022/03/20 08:46:19;;;;;;;14.20;9.40;;;11.50;1.00;;;;;;5072075;28;20184;-61
2022/03/20 08:48:44;;;;;;;12.00;9.23;;;11.90;1.00;;;;;;5071825;28;20183;-61
2022/03/20 08:51:10;;;;;;;11.40;8.53;;;11.90;1.00;;;;;;5071278;28;20266;-62
2022/03/20 08:53:35;;;;;;;12.33;8.33;;;11.60;1.00;;;;;;5072850;28;20221;-63
2022/03/20 08:56:01;;;;;;;10.73;9.23;;;11.60;1.00;;;;;;5072627;28;20190;-61
2022/03/20 08:58:26;;;;;;;12.90;8.97;;;11.50;1.00;;;;;;5073087;28;20261;-62
2022/03/20 09:00:52;;;;;;;12.20;9.23;;;11.50;1.00;;;;;;5071982;28;20191;-62
2022/03/20 09:03:18;;;;;;;11.60;8.33;;;11.50;1.00;;;;;;5070735;28;20172;-62
2022/03/20 09:05:44;;;;;;;10.37;8.77;;;11.40;1.00;;;;;;5070865;28;20303;-60
2022/03/20 09:08:09;;;;;;;9.60;8.60;;;11.50;1.00;;;;;;5071556;28;20183;-60
2022/03/20 09:10:35;;;;;;;13.13;9.17;;;11.30;1.00;;;;;;5072159;28;20503;-61
2022/03/20 09:13:01;;;;;;;11.13;9.93;;;11.30;1.00;;;;;;5071918;28;20733;-61
2022/03/20 09:15:29;;;;;;;12.10;8.90;;;11.60;1.00;;;;;;5070955;28;20211;-60
2022/03/20 09:20:41;;;;;;;10.00;8.70;;;11.80;1.00;;;;;;5055405;28;21349;-59
2022/03/20 09:23:08;;;;;;;9.80;8.07;;;11.80;1.00;;;;;;5070667;28;20445;-60
2022/03/20 09:25:34;;;;;;;10.57;8.30;;;11.90;1.00;;;;;;5072044;28;20922;-60
2022/03/20 09:28:04;;;;;;;10.67;9.50;;;11.90;1.00;;;;;;5073508;28;20445;-61
2022/03/20 09:30:32;;;;;;;11.73;10.23;;;11.90;1.00;;;;;;5072322;28;20438;-64
2022/03/20 09:32:58;;;;;;;11.10;9.53;;;11.90;1.00;;;;;;5071401;28;20553;-61
2022/03/20 09:35:23;;;;;;;9.80;8.80;;;11.90;1.00;;;;;;5052890;28;20540;-64
2022/03/20 09:37:49;;;;;;;13.50;8.80;;;12.00;1.00;;;;;;5072871;28;20194;-61
2022/03/20 09:40:15;;;;;;;10.87;9.03;;;12.60;1.00;;;;;;5071706;28;20191;-59
2022/03/20 09:42:41;;;;;;;9.33;8.40;;;12.90;1.00;;;;;;5072418;28;20183;-62
2022/03/20 09:45:09;;;;;;;10.03;9.03;;;12.90;1.00;;;;;;5072281;28;20438;-60
2022/03/20 09:47:39;;;;;;;9.73;8.40;;;12.80;1.00;;;;;;5072224;28;20332;-59
2022/03/20 09:50:06;;;;;;;10.13;9.20;;;12.90;1.00;;;;;;5069279;28;20495;-60
2022/03/20 09:52:33;;;;;;;13.53;8.63;;;13.00;1.00;;;;;;5069505;28;20491;-60
2022/03/20 09:54:59;;;;;;;10.53;8.60;;;13.00;1.00;;;;;;5069365;28;20449;-62
2022/03/20 09:57:28;;;;;;;9.67;8.67;;;13.20;1.00;;;;;;5068453;28;20442;-59
2022/03/20 09:59:54;;;;;;;11.40;7.80;;;13.20;1.00;;;;;;5067632;28;20469;-60
2022/03/20 10:02:19;;;;;;;9.87;7.90;;;13.20;1.00;;;;;;5070488;28;20444;-63
2022/03/20 10:04:57;;;;;;;11.33;7.73;;;13.30;1.00;;;;;;5069898;28;20308;-63
2022/03/20 10:07:28;;;;;;;10.63;7.77;;;13.30;1.00;;;;;;5069937;28;20176;-62
2022/03/20 10:10:12;;;;;;;11.53;8.37;;;13.60;1.00;;;;;;5069234;28;21021;-63
2022/03/20 10:12:47;;;;;;;9.83;8.03;;;13.40;1.00;;;;;;5070527;28;20514;-62
2022/03/20 10:15:32;;;;;;;10.40;8.13;;;13.10;1.00;;;;;;5070977;28;20520;-63
2022/03/20 10:18:08;;;;;;;9.53;7.90;;;13.00;1.00;;;;;;5069029;28;20950;-63
2022/03/20 10:20:46;;;;;;;9.67;8.53;;;13.00;1.00;;;;;;5071750;28;20433;-63
2022/03/20 10:23:33;;;;;;;9.13;6.70;;;13.10;1.00;;;;;;5070276;28;20523;-62
2022/03/20 10:26:04;;;;;;;7.70;6.73;;;13.10;1.00;;;;;;5071513;28;20938;-60
2022/03/20 10:28:55;;;;;;;8.13;7.33;;;13.00;1.00;;;;;;5070288;28;20445;-62
2022/03/20 10:31:21;;;;;;;9.77;7.50;;;;;;;;;;5069893;28;21025;-61
2022/03/20 10:34:09;;;;;;;8.43;7.43;;;13.30;1.00;;;;;;5070180;28;20441;-63
2022/03/20 10:36:36;;;;;;;8.27;7.40;;;13.40;1.00;;;;;;5069722;28;20441;-61
2022/03/20 10:39:08;;;;;;;8.63;7.73;;;13.50;1.00;;;;;;5053095;28;20464;-62
2022/03/20 10:41:34;;;;;;;9.37;7.40;;;13.70;1.00;;;;;;5071370;28;20445;-63
2022/03/20 10:44:01;;;;;;;10.97;7.60;;;13.70;1.00;;;;;;5070526;28;20441;-61
2022/03/20 10:46:28;;;;;;;8.77;7.13;;;13.60;1.00;;;;;;5072393;28;20440;-63
2022/03/20 10:48:57;;;;;;;8.70;7.33;;;13.60;1.00;;;;;;5070571;28;20870;-63
2022/03/20 10:51:40;;;;;;;9.33;7.87;;;13.70;1.00;;;;;;5071070;28;20448;-63
2022/03/20 10:54:10;;;;;;;8.73;7.83;;;13.80;1.00;;;;;;5069976;28;20454;-63
2022/03/20 10:56:57;;;;;;;10.63;7.23;;;13.80;1.00;;;;;;5070077;28;20438;-63
2022/03/20 10:59:24;;;;;;;8.03;6.60;;;13.80;1.00;;;;;;5069595;28;21135;-63
2022/03/20 11:01:50;;;;;;;10.00;7.13;;;13.60;1.00;;;;;;5071381;28;20513;-61
2022/03/20 11:04:17;;;;;;;8.30;6.90;;;13.70;1.00;;;;;;5069331;28;20989;-62
2022/03/20 11:06:44;;;;;;;11.70;9.13;;;13.80;1.00;;;;;;5070531;28;20187;-62
2022/03/20 11:09:10;;;;;;;8.23;6.80;;;13.80;1.00;;;;;;5069420;28;20449;-63
2022/03/20 11:11:40;;;;;;;10.43;7.03;;;13.80;1.00;;;;;;5069865;28;20449;-61
2022/03/20 11:14:08;;;;;;;7.20;6.50;;;13.80;1.00;;;;;;5071277;28;20453;-61
2022/03/20 11:16:37;;;;;;;8.37;6.40;;;13.70;1.00;;;;;;5054380;28;20804;-65
2022/03/20 11:19:09;;;;;;;7.67;5.83;;;13.90;1.00;;;;;;5069240;28;20473;-62
2022/03/20 11:21:38;;;;;;;9.20;6.30;;;14.00;1.00;;;;;;5069533;28;20473;-63
2022/03/20 11:24:05;;;;;;;8.37;6.40;;;14.20;1.00;;;;;;5070014;28;20444;-64
2022/03/20 11:26:32;;;;;;;7.27;4.80;;;14.10;1.00;;;;;;5071945;28;20465;-64
2022/03/20 11:29:01;;;;;;;8.40;6.13;;;14.10;1.00;;;;;;5074404;28;20818;-62
2022/03/20 11:31:32;;;;;;;6.20;5.57;;;14.10;1.00;;;;;;5073223;28;20532;-62
2022/03/20 11:33:58;;;;;;;6.70;5.43;;;14.10;1.00;;;;;;5072916;28;20464;-62
2022/03/20 11:36:23;;;;;;;7.50;5.43;;;14.00;1.00;;;;;;5074990;28;20548;-64
2022/03/20 11:39:09;;;;;;;7.20;5.57;;;14.00;1.00;;;;;;5040145;28;20576;-63
2022/03/20 11:41:35;;;;;;;6.87;5.40;;;14.00;1.00;;;;;;5070477;28;20180;-62
2022/03/20 11:44:20;;;;;;;7.00;6.23;;;14.10;1.00;;;;;;5073466;28;20438;-62
2022/03/20 11:47:07;;;;;;;7.60;6.17;;;14.10;1.00;;;;;;5076870;28;20170;-62
2022/03/20 11:49:34;;;;;;;6.90;6.20;;;14.10;1.00;;;;;;5073478;28;20912;-64
2022/03/20 11:52:09;;;;;;;7.40;6.10;;;14.40;1.00;;;;;;5072625;28;20433;-62
2022/03/20 11:54:44;;;;;;;7.23;5.97;;;14.60;1.00;;;;;;5073167;28;20452;-64
2022/03/20 11:57:30;;;;;;;6.83;5.60;;;14.70;1.00;;;;;;5073413;28;20437;-64
2022/03/20 11:59:57;;;;;;;6.50;5.53;;;14.70;1.00;;;;;;5053332;28;20465;-62
2022/03/20 12:02:35;;;;;;;5.60;5.00;;;14.80;1.00;;;;;;5072182;28;20441;-63
2022/03/20 12:05:30;;;;;;;6.03;5.43;;;14.50;1.00;;;;;;5072723;28;21041;-63
2022/03/20 12:08:23;;;;;;;8.60;6.10;;;14.50;1.00;;;;;;5073493;28;20438;-63
2022/03/20 12:11:34;;;;;;;13.93;7.00;;;14.50;1.00;;;;;;5069538;28;20433;-64
2022/03/20 12:14:03;;;;;;;8.23;6.00;;;14.50;1.00;;;;;;4991629;28;20456;-62
2022/03/20 12:16:43;;;;;;;8.10;5.97;;;14.40;1.00;;;;;;5069711;28;20450;-61
2022/03/20 12:19:14;;;;;;;6.60;5.70;;;14.70;1.00;;;;;;5072254;28;20561;-63
2022/03/20 12:22:06;;;;;;;6.00;5.40;;;14.60;1.00;;;;;;5071742;28;20949;-63
2022/03/20 12:24:35;;;;;;;6.20;5.40;;;14.60;1.00;;;;;;5054370;28;21540;-63
2022/03/20 12:27:25;;;;;;;5.87;5.17;;;14.70;1.00;;;;;;5072340;28;20441;-63
2022/03/20 12:30:02;;;;;;;7.30;5.60;;;14.80;1.00;;;;;;5072260;28;20846;-64
2022/03/20 12:32:46;;;;;;;7.10;5.63;;;14.90;1.00;;;;;;5072072;28;20464;-62
2022/03/20 12:35:12;;;;;;;5.60;5.00;;;14.90;1.00;;;;;;5071694;28;20457;-65
2022/03/20 12:37:40;;;;;;;5.30;4.90;;;14.80;1.00;;;;;;5052993;28;20445;-61
2022/03/20 12:40:19;;;;;;;8.03;6.40;;;14.80;1.00;;;;;;5071901;28;20469;-64
2022/03/20 12:43:08;;;;;;;6.53;5.47;;;15.00;1.00;;;;;;5072158;28;20442;-64
2022/03/20 12:45:45;;;;;;;13.87;9.10;;;15.10;1.00;;;;;;5072898;28;20464;-62
2022/03/20 12:48:13;;;;;;;5.60;4.90;;;15.00;1.00;;;;;;5064950;28;21154;-62
2022/03/20 12:50:41;;;;;;;8.03;5.87;;;15.00;1.00;;;;;;5069538;28;20955;-60
2022/03/20 12:53:14;;;;;;;5.77;5.10;;;15.00;1.00;;;;;;5070990;28;20441;-61
2022/03/20 12:55:41;;;;;;;5.43;4.97;;;14.90;1.00;;;;;;5068720;28;20450;-61
2022/03/20 12:58:13;;;;;;;5.77;5.17;;;14.60;1.00;;;;;;5066732;28;20959;-62
2022/03/20 13:00:39;;;;;;;7.20;4.87;;;14.60;1.00;;;;;;5068375;28;20791;-62
2022/03/20 13:03:10;;;;;;;5.33;4.83;;;14.60;1.00;;;;;;5050642;28;20441;-59
2022/03/20 13:05:45;;;;;;;6.70;4.70;;;14.60;1.00;;;;;;5067540;28;20238;-62
2022/03/20 13:08:18;;;;;;;7.80;5.27;;;14.50;1.00;;;;;;5070953;28;20445;-61
2022/03/20 13:10:44;;;;;;;5.13;4.03;;;14.60;1.00;;;;;;5071073;28;20464;-62
2022/03/20 13:13:13;;;;;;;6.60;4.60;;;14.50;1.00;;;;;;5070916;28;20448;-61
2022/03/20 13:15:40;;;;;;;5.53;4.93;;;14.70;1.00;;;;;;5068902;28;20448;-62
2022/03/20 13:18:07;;;;;;;7.20;5.43;;;14.70;1.00;;;;;;5047327;28;20454;-63
2022/03/20 13:20:35;;;;;;;7.57;5.50;;;14.70;1.00;;;;;;5068918;28;20524;-63
2022/03/20 13:23:10;;;;;;;6.13;5.53;;;14.70;1.00;;;;;;5069872;28;20445;-62
2022/03/20 13:25:40;;;;;;;7.53;5.90;;;14.80;1.00;;;;;;5067445;28;21016;-61
2022/03/20 13:28:06;;;;;;;7.37;5.93;;;14.80;1.00;;;;;;5069122;28;20911;-63
2022/03/20 13:30:35;;;;;;;7.30;6.00;;;14.80;1.00;;;;;;5064350;28;20930;-61